Terminal Aerodrome Forecast
Issued by NWS

Home | Current Version | Previous Version | Text Only | Print | Product List | Glossary On
Versions: 1 2 3 4 5 6 7 8 9 10 11 12
093
FTUS41 KCAR 141730
TAFHUL
TAF
KHUL 141730Z 1418/1518 31013G21KT P6SM BKN250
     FM150200 27008KT P6SM SCT250
     FM151100 26004KT P6SM FEW250=

USA.gov is the U.S. government's official web portal to all federal, state and local government web resources and services.